Time;durP1;ratioP1;P1;durP2;ratioP2;P2;SDS_P1;SDS_P2;PMS_P1;PMS_P2;Temp;Humidity;BMP_temperature;BMP_pressure;BME280_temperature;BME280_humidity;BME280_pressure;Samples;Min_cycle;Max_cycle;Signal;HPM_P1;HPM_P2
2023/03/11 00:00:25;;;;;;;0.65;0.38;;;15.40;1.00;;;;;;5073443;28;20115;-37
2023/03/11 00:02:53;;;;;;;1.23;0.22;;;15.40;1.00;;;;;;5072555;28;20040;-38
2023/03/11 00:05:26;;;;;;;2.00;0.82;;;15.40;1.00;;;;;;5073405;28;20484;-38
2023/03/11 00:07:54;;;;;;;0.47;0.10;;;15.40;1.00;;;;;;5073175;28;20044;-38
2023/03/11 00:10:25;;;;;;;2.15;0.17;;;15.30;1.00;;;;;;5073291;28;20078;-38
2023/03/11 00:12:55;;;;;;;2.13;0.60;;;15.30;1.00;;;;;;5072207;28;20045;-37
2023/03/11 00:15:22;;;;;;;2.13;0.68;;;15.30;1.00;;;;;;5073010;28;20052;-38
2023/03/11 00:17:49;;;;;;;2.10;0.40;;;15.30;1.00;;;;;;5073017;28;20048;-37
2023/03/11 00:20:25;;;;;;;0.95;0.40;;;15.20;1.00;;;;;;5073000;28;20037;-37
2023/03/11 00:22:53;;;;;;;0.45;0.20;;;15.20;1.00;;;;;;5072195;28;20056;-38
2023/03/11 00:25:21;;;;;;;1.83;0.30;;;15.20;1.00;;;;;;5072805;28;20044;-38
2023/03/11 00:27:48;;;;;;;2.33;0.52;;;15.20;1.00;;;;;;5072687;28;20053;-37
2023/03/11 00:30:21;;;;;;;2.72;0.47;;;15.20;1.00;;;;;;5054783;28;20499;-37
2023/03/11 00:32:49;;;;;;;1.98;0.43;;;15.10;1.00;;;;;;5054006;28;20044;-37
2023/03/11 00:35:19;;;;;;;0.93;0.30;;;15.10;1.00;;;;;;5093247;22;20054;-37
2023/03/11 00:37:47;;;;;;;1.83;0.28;;;15.10;1.00;;;;;;5094768;28;20040;-37
2023/03/11 00:40:17;;;;;;;2.28;0.47;;;15.10;1.00;;;;;;5104441;28;20044;-37
2023/03/11 00:42:44;;;;;;;3.38;0.45;;;15.00;1.00;;;;;;5094082;28;20513;-39
2023/03/11 00:45:14;;;;;;;4.95;1.05;;;15.00;1.00;;;;;;5091299;28;20044;-39
2023/03/11 00:47:41;;;;;;;0.55;0.20;;;15.00;1.00;;;;;;5094805;28;20078;-37
2023/03/11 00:50:12;;;;;;;1.60;0.40;;;14.90;1.00;;;;;;5094797;28;20048;-37
2023/03/11 00:52:39;;;;;;;2.70;0.30;;;14.90;1.00;;;;;;5112410;28;20042;-37
2023/03/11 00:55:06;;;;;;;2.05;0.40;;;14.90;1.00;;;;;;5112022;28;20054;-39
2023/03/11 00:57:34;;;;;;;0.63;0.25;;;14.90;1.00;;;;;;5094470;28;20039;-39
2023/03/11 01:00:02;;;;;;;0.70;0.20;;;14.90;1.00;;;;;;5094501;28;20406;-39
2023/03/11 01:02:30;;;;;;;1.13;0.22;;;14.80;1.00;;;;;;5094028;28;20054;-39
2023/03/11 01:04:56;;;;;;;1.10;0.10;;;14.80;1.00;;;;;;5112307;28;20514;-39
2023/03/11 01:07:23;;;;;;;3.83;1.55;;;14.80;1.00;;;;;;5094463;28;20055;-39
2023/03/11 01:09:50;;;;;;;1.75;0.30;;;14.80;1.00;;;;;;5094338;28;20498;-39
2023/03/11 01:12:17;;;;;;;1.70;0.32;;;14.80;1.00;;;;;;5093761;28;20456;-39
2023/03/11 01:14:44;;;;;;;1.70;0.65;;;14.70;1.00;;;;;;5112325;28;20391;-39
2023/03/11 01:17:10;;;;;;;2.10;0.32;;;14.70;1.00;;;;;;5094591;28;20070;-39
2023/03/11 01:19:37;;;;;;;0.77;0.30;;;14.70;1.00;;;;;;5112587;28;20078;-38
2023/03/11 01:22:04;;;;;;;0.80;0.32;;;14.70;1.00;;;;;;5094196;28;20079;-39
2023/03/11 01:24:32;;;;;;;1.67;0.30;;;14.70;1.00;;;;;;5111588;28;20525;-38
2023/03/11 01:26:59;;;;;;;1.08;0.30;;;14.60;1.00;;;;;;5112374;28;20039;-38
2023/03/11 01:29:26;;;;;;;1.50;0.30;;;14.60;1.00;;;;;;5112458;28;20059;-38
2023/03/11 01:31:53;;;;;;;1.25;0.45;;;14.60;1.00;;;;;;5112334;28;20540;-38
2023/03/11 01:34:20;;;;;;;1.67;0.28;;;14.60;1.00;;;;;;5093300;28;20506;-38
2023/03/11 01:36:46;;;;;;;1.38;0.40;;;14.60;1.00;;;;;;5094020;28;20067;-38
2023/03/11 01:39:13;;;;;;;0.80;0.20;;;14.50;1.00;;;;;;5094058;28;20044;-39
2023/03/11 01:41:40;;;;;;;1.38;0.45;;;14.50;1.00;;;;;;5093960;28;20479;-39
2023/03/11 01:44:09;;;;;;;0.70;0.40;;;14.50;1.00;;;;;;5093362;28;20089;-38
2023/03/11 01:46:58;;;;;;;2.08;0.30;;;14.50;1.00;;;;;;5093858;28;20047;-38
2023/03/11 01:49:30;;;;;;;1.27;0.30;;;14.50;1.00;;;;;;5093902;28;20101;-39
2023/03/11 01:52:02;;;;;;;0.40;0.20;;;14.40;1.00;;;;;;5093822;28;20113;-38
2023/03/11 01:54:34;;;;;;;2.67;0.43;;;14.40;1.00;;;;;;5093299;28;20097;-39
2023/03/11 01:57:05;;;;;;;1.42;0.15;;;14.40;1.00;;;;;;5112264;28;20424;-39
2023/03/11 01:59:38;;;;;;;2.42;0.50;;;14.40;1.00;;;;;;5093554;28;20040;-39
2023/03/11 02:02:11;;;;;;;0.65;0.20;;;14.40;1.00;;;;;;5093750;28;20499;-39
2023/03/11 02:04:41;;;;;;;0.57;0.13;;;14.30;1.00;;;;;;5093364;28;20051;-39
2023/03/11 02:07:10;;;;;;;0.20;0.10;;;14.30;1.00;;;;;;5095699;28;20077;-38
2023/03/11 02:09:37;;;;;;;0.93;0.20;;;14.30;1.00;;;;;;5097706;28;20502;-39
2023/03/11 02:12:06;;;;;;;0.30;0.10;;;14.20;1.00;;;;;;5116003;28;20046;-38
2023/03/11 02:14:35;;;;;;;3.55;0.28;;;14.20;1.00;;;;;;5115070;28;20035;-38
2023/03/11 02:17:02;;;;;;;1.73;0.20;;;14.20;1.00;;;;;;5097608;28;20457;-38
2023/03/11 02:19:32;;;;;;;1.65;0.38;;;14.20;1.00;;;;;;5097562;28;20039;-38
2023/03/11 02:22:00;;;;;;;0.70;0.28;;;14.10;1.00;;;;;;5097556;28;20040;-38
2023/03/11 02:24:39;;;;;;;1.92;0.20;;;14.10;1.00;;;;;;5096678;28;20075;-38
2023/03/11 02:27:12;;;;;;;0.65;0.10;;;14.10;1.00;;;;;;5097305;28;20047;-38
2023/03/11 02:29:42;;;;;;;0.20;0.08;;;14.10;1.00;;;;;;5097520;28;20039;-38
2023/03/11 02:32:09;;;;;;;0.47;0.20;;;14.10;1.00;;;;;;5097545;28;20067;-39
2023/03/11 02:34:41;;;;;;;1.55;0.20;;;14.00;1.00;;;;;;5096787;28;20050;-39
2023/03/11 02:37:11;;;;;;;0.77;0.15;;;14.00;1.00;;;;;;5097255;28;20047;-38
2023/03/11 02:39:46;;;;;;;1.60;0.20;;;14.10;1.00;;;;;;5097215;28;20036;-38
2023/03/11 02:42:25;;;;;;;0.40;0.10;;;14.00;1.00;;;;;;5096926;28;20044;-38
2023/03/11 02:45:09;;;;;;;0.68;0.20;;;14.00;1.00;;;;;;5096815;28;20097;-39
2023/03/11 02:47:38;;;;;;;0.60;0.35;;;14.00;1.00;;;;;;5115493;28;20051;-39
2023/03/11 02:50:12;;;;;;;2.38;0.32;;;14.00;1.00;;;;;;5097032;28;20461;-39
2023/03/11 02:52:39;;;;;;;0.90;0.10;;;13.90;1.00;;;;;;5114410;28;20078;-39
2023/03/11 02:55:07;;;;;;;2.25;0.30;;;13.90;1.00;;;;;;5096810;28;20032;-39
2023/03/11 02:57:35;;;;;;;0.85;0.15;;;13.90;1.00;;;;;;5097008;28;20043;-39
2023/03/11 03:00:12;;;;;;;1.42;0.68;;;13.90;1.00;;;;;;5096966;28;20040;-39
2023/03/11 03:02:42;;;;;;;0.65;0.55;;;13.80;1.00;;;;;;5095934;28;20138;-39
2023/03/11 03:05:10;;;;;;;0.60;0.20;;;13.80;1.00;;;;;;5115172;28;20355;-39
2023/03/11 03:07:37;;;;;;;2.15;0.28;;;13.80;1.00;;;;;;5096670;28;20067;-39
2023/03/11 03:10:08;;;;;;;0.73;0.20;;;13.80;1.00;;;;;;5096819;28;20044;-39
2023/03/11 03:12:35;;;;;;;0.38;0.10;;;13.80;1.00;;;;;;5114488;28;20042;-39
2023/03/11 03:15:02;;;;;;;2.67;0.43;;;13.80;1.00;;;;;;5096088;28;20058;-39
2023/03/11 03:17:29;;;;;;;1.17;0.20;;;13.80;1.00;;;;;;5096397;28;20499;-39
2023/03/11 03:19:56;;;;;;;1.33;0.10;;;13.70;1.00;;;;;;5095708;28;20134;-39
2023/03/11 03:22:26;;;;;;;0.50;0.20;;;13.80;1.00;;;;;;5114407;28;20452;-39
2023/03/11 03:24:53;;;;;;;0.60;0.10;;;13.70;1.00;;;;;;5095977;28;20039;-39
2023/03/11 03:27:20;;;;;;;0.45;0.30;;;13.70;1.00;;;;;;5096380;28;20039;-39
2023/03/11 03:29:47;;;;;;;0.52;0.10;;;13.70;1.00;;;;;;5096221;28;20039;-39
2023/03/11 03:32:14;;;;;;;0.90;0.17;;;13.80;1.00;;;;;;5096027;28;20036;-39
2023/03/11 03:34:42;;;;;;;1.23;0.22;;;13.80;1.00;;;;;;5095886;28;20069;-39
2023/03/11 03:37:09;;;;;;;0.32;0.10;;;13.80;1.00;;;;;;5114353;28;20040;-39
2023/03/11 03:39:36;;;;;;;0.55;0.25;;;13.90;1.00;;;;;;5114334;28;20039;-39
2023/03/11 03:42:03;;;;;;;0.70;0.10;;;14.00;1.00;;;;;;5096027;28;20035;-39
2023/03/11 03:44:33;;;;;;;0.63;0.20;;;14.10;1.00;;;;;;5095159;28;20067;-39
2023/03/11 03:46:59;;;;;;;0.60;0.40;;;14.20;1.00;;;;;;5095861;28;20462;-39
2023/03/11 03:49:26;;;;;;;1.55;0.20;;;14.30;1.00;;;;;;5095941;28;20074;-39
2023/03/11 03:51:54;;;;;;;0.60;0.10;;;14.40;1.00;;;;;;5095820;28;20517;-39
2023/03/11 03:54:27;;;;;;;0.30;0.10;;;14.50;1.00;;;;;;5094902;28;20129;-39
2023/03/11 03:56:54;;;;;;;2.45;0.95;;;14.60;1.00;;;;;;5095614;28;20051;-39
2023/03/11 03:59:21;;;;;;;2.50;0.30;;;14.60;1.00;;;;;;5095629;28;20044;-38
2023/03/11 04:01:53;;;;;;;1.27;0.20;;;14.70;1.00;;;;;;5095593;28;20039;-39
2023/03/11 04:04:22;;;;;;;0.65;0.20;;;14.70;1.00;;;;;;5094905;28;20043;-39
2023/03/11 04:06:49;;;;;;;0.90;0.20;;;14.80;1.00;;;;;;5095460;28;20502;-39
2023/03/11 04:09:18;;;;;;;1.10;0.25;;;14.80;1.00;;;;;;5095375;28;20040;-39
2023/03/11 04:11:45;;;;;;;1.52;0.13;;;14.80;1.00;;;;;;5113844;28;20067;-39
2023/03/11 04:14:14;;;;;;;1.17;0.22;;;14.90;1.00;;;;;;5094597;28;20498;-39
2023/03/11 04:16:48;;;;;;;0.47;0.10;;;14.90;1.00;;;;;;5095462;28;20035;-39
2023/03/11 04:19:15;;;;;;;0.73;0.28;;;14.90;1.00;;;;;;5095300;28;20078;-39
2023/03/11 04:21:42;;;;;;;0.88;0.68;;;14.90;1.00;;;;;;5095106;28;20044;-39
2023/03/11 04:24:10;;;;;;;2.00;0.32;;;14.90;1.00;;;;;;5094139;28;20048;-39
2023/03/11 04:26:38;;;;;;;2.15;0.30;;;14.90;1.00;;;;;;5095248;28;20050;-39
2023/03/11 04:29:08;;;;;;;1.77;0.13;;;14.90;1.00;;;;;;5092905;28;20494;-39
2023/03/11 04:31:40;;;;;;;1.38;0.28;;;14.90;1.00;;;;;;5094370;28;20147;-39
2023/03/11 04:34:08;;;;;;;2.00;0.10;;;14.90;1.00;;;;;;5093888;28;20406;-39
2023/03/11 04:36:36;;;;;;;1.95;0.30;;;14.90;1.00;;;;;;5112924;28;20035;-39
2023/03/11 04:39:04;;;;;;;3.22;0.20;;;14.90;1.00;;;;;;5094763;28;20451;-39
2023/03/11 04:41:36;;;;;;;0.40;0.10;;;14.90;1.00;;;;;;5095124;28;20059;-39
2023/03/11 04:44:04;;;;;;;0.55;0.20;;;14.80;1.00;;;;;;5094333;28;20077;-39
2023/03/11 04:46:31;;;;;;;2.92;0.40;;;14.80;1.00;;;;;;5094889;28;20062;-39
2023/03/11 04:48:59;;;;;;;2.00;0.20;;;14.80;1.00;;;;;;5094879;28;20048;-39
2023/03/11 04:51:26;;;;;;;1.17;0.32;;;14.80;1.00;;;;;;5094950;28;20134;-39
2023/03/11 04:53:53;;;;;;;1.42;0.28;;;14.70;1.00;;;;;;5112137;28;20139;-39
2023/03/11 04:56:20;;;;;;;0.17;0.10;;;14.70;1.00;;;;;;5094560;28;20035;-39
2023/03/11 04:58:49;;;;;;;0.60;0.43;;;14.70;1.00;;;;;;5094677;28;20418;-39
2023/03/11 05:01:15;;;;;;;0.28;0.10;;;14.70;1.00;;;;;;5094739;28;20069;-39
2023/03/11 05:03:43;;;;;;;0.40;0.13;;;14.70;1.00;;;;;;5093812;28;20047;-39
2023/03/11 05:06:10;;;;;;;1.48;0.15;;;14.70;1.00;;;;;;5094527;28;20570;-39
2023/03/11 05:08:37;;;;;;;0.82;0.20;;;14.60;1.00;;;;;;5094541;28;20066;-38
2023/03/11 05:11:04;;;;;;;1.00;0.40;;;14.60;1.00;;;;;;5094376;28;20059;-38
2023/03/11 05:13:31;;;;;;;1.02;0.17;;;14.60;1.00;;;;;;5093692;28;20055;-38
2023/03/11 05:15:58;;;;;;;0.57;0.10;;;14.60;1.00;;;;;;5094147;28;20040;-39
2023/03/11 05:18:25;;;;;;;0.10;0.05;;;14.60;1.00;;;;;;5094625;28;20491;-38
2023/03/11 05:20:52;;;;;;;3.50;0.70;;;14.50;1.00;;;;;;5094197;28;20097;-39
2023/03/11 05:23:23;;;;;;;0.85;0.17;;;14.50;1.00;;;;;;5093652;28;20044;-39
2023/03/11 05:25:50;;;;;;;1.27;0.40;;;14.50;1.00;;;;;;5094096;28;20047;-39
2023/03/11 05:28:17;;;;;;;1.00;0.30;;;14.50;1.00;;;;;;5094197;28;20061;-39
2023/03/11 05:30:49;;;;;;;0.45;0.10;;;14.40;1.00;;;;;;5094196;28;20495;-39
2023/03/11 05:33:16;;;;;;;0.70;0.30;;;14.40;1.00;;;;;;5093378;28;20130;-39
2023/03/11 05:35:44;;;;;;;0.73;0.05;;;14.40;1.00;;;;;;5093968;28;20046;-39
2023/03/11 05:38:11;;;;;;;0.85;0.25;;;14.40;1.00;;;;;;5094164;28;20556;-39
2023/03/11 05:40:38;;;;;;;0.98;0.22;;;14.40;1.00;;;;;;5094170;28;20055;-39
2023/03/11 05:43:04;;;;;;;0.80;0.20;;;14.30;1.00;;;;;;5099603;28;20487;-39
2023/03/11 05:45:36;;;;;;;0.68;0.10;;;14.30;1.00;;;;;;5100789;28;20050;-39
2023/03/11 05:48:02;;;;;;;1.55;0.88;;;14.30;1.00;;;;;;5100959;28;20051;-39
2023/03/11 05:50:30;;;;;;;0.32;0.00;;;14.30;1.00;;;;;;5100654;28;20047;-39
2023/03/11 05:52:57;;;;;;;1.58;0.40;;;14.20;1.00;;;;;;5118359;28;20410;-39
2023/03/11 05:55:24;;;;;;;3.05;0.28;;;14.20;1.00;;;;;;5100661;28;20416;-39
2023/03/11 05:57:52;;;;;;;0.60;0.30;;;14.20;1.00;;;;;;5100637;28;20044;-39
2023/03/11 06:00:20;;;;;;;1.02;0.20;;;14.20;1.00;;;;;;5100535;28;20050;-39
2023/03/11 06:02:50;;;;;;;0.65;0.15;;;14.20;1.00;;;;;;5098779;28;20457;-39
2023/03/11 06:05:18;;;;;;;1.50;0.17;;;14.10;1.00;;;;;;5085277;28;20055;-38
2023/03/11 06:07:47;;;;;;;1.23;0.10;;;14.10;1.00;;;;;;5080948;28;20502;-39
2023/03/11 06:10:14;;;;;;;1.35;0.17;;;14.10;1.00;;;;;;5099883;28;20062;-39
2023/03/11 06:12:41;;;;;;;1.15;0.25;;;14.20;1.00;;;;;;5098055;28;20356;-39
2023/03/11 06:15:22;;;;;;;1.20;0.20;;;14.20;1.00;;;;;;5100283;28;20089;-39
2023/03/11 06:17:49;;;;;;;0.47;0.20;;;14.30;1.00;;;;;;5100410;28;20059;-39
2023/03/11 06:20:16;;;;;;;0.77;0.20;;;14.30;1.00;;;;;;5100722;28;20043;-39
2023/03/11 06:22:46;;;;;;;0.60;0.20;;;14.40;1.00;;;;;;5099612;28;20128;-39
2023/03/11 06:25:13;;;;;;;0.73;0.20;;;14.50;1.00;;;;;;5118562;28;20036;-39
2023/03/11 06:27:43;;;;;;;0.57;0.13;;;14.60;1.00;;;;;;5100365;28;20047;-39
2023/03/11 06:30:11;;;;;;;0.35;0.10;;;14.70;1.00;;;;;;5100458;28;20044;-39
2023/03/11 06:32:48;;;;;;;0.40;0.13;;;14.80;1.00;;;;;;5099746;28;20209;-39
2023/03/11 06:35:15;;;;;;;0.70;0.13;;;14.90;1.00;;;;;;5115964;28;20072;-38
2023/03/11 06:37:42;;;;;;;1.67;0.47;;;15.00;1.00;;;;;;5089841;22;20060;-37
2023/03/11 06:40:10;;;;;;;3.10;0.20;;;15.10;1.00;;;;;;5064714;28;20068;-37
2023/03/11 06:42:37;;;;;;;1.35;0.22;;;15.20;1.00;;;;;;5067414;28;20052;-37
2023/03/11 06:45:07;;;;;;;1.88;0.63;;;15.30;1.00;;;;;;5063095;28;20088;-37
2023/03/11 06:47:34;;;;;;;5.32;0.40;;;15.30;1.00;;;;;;5065490;28;20055;-37
2023/03/11 06:50:05;;;;;;;1.98;0.30;;;15.30;1.00;;;;;;5077791;28;20064;-37
2023/03/11 06:52:32;;;;;;;1.50;0.38;;;15.40;1.00;;;;;;5041831;28;20045;-37
2023/03/11 06:54:59;;;;;;;1.30;0.30;;;15.40;1.00;;;;;;5047445;28;20045;-37
2023/03/11 06:57:28;;;;;;;0.82;0.40;;;15.40;1.00;;;;;;5056414;28;20434;-37
2023/03/11 06:59:57;;;;;;;1.98;0.28;;;15.40;1.00;;;;;;5056047;28;20037;-37
2023/03/11 07:02:24;;;;;;;0.65;0.30;;;15.40;1.00;;;;;;5055895;28;20045;-36
2023/03/11 07:04:51;;;;;;;3.28;0.35;;;15.40;1.00;;;;;;5055973;28;20419;-37
2023/03/11 07:07:20;;;;;;;2.70;0.15;;;15.40;1.00;;;;;;5056208;28;20098;-37
2023/03/11 07:09:47;;;;;;;3.58;0.32;;;15.40;1.00;;;;;;5056332;28;20052;-37
2023/03/11 07:12:14;;;;;;;0.90;0.28;;;15.40;1.00;;;;;;5055522;28;20123;-37
2023/03/11 07:14:41;;;;;;;2.33;0.40;;;15.40;1.00;;;;;;5053715;28;20495;-37
2023/03/11 07:17:07;;;;;;;5.85;0.70;;;15.40;1.00;;;;;;5048344;28;20045;-37
2023/03/11 07:19:40;;;;;;;1.98;0.40;;;15.40;1.00;;;;;;5049541;28;20048;-37
2023/03/11 07:22:07;;;;;;;2.88;0.50;;;15.30;1.00;;;;;;5074184;28;20094;-38
2023/03/11 07:24:34;;;;;;;4.00;0.28;;;15.30;1.00;;;;;;5073520;28;20127;-37
2023/03/11 07:27:00;;;;;;;1.52;0.45;;;15.30;1.00;;;;;;5068133;28;20045;-38
2023/03/11 07:29:27;;;;;;;1.98;0.20;;;15.30;1.00;;;;;;5066652;28;20496;-38
2023/03/11 07:31:54;;;;;;;2.47;0.43;;;15.20;1.00;;;;;;5069963;28;20051;-38
2023/03/11 07:34:21;;;;;;;2.60;0.70;;;15.20;1.00;;;;;;5069270;28;20048;-37
2023/03/11 07:36:47;;;;;;;2.65;1.23;;;15.20;1.00;;;;;;5067968;28;20064;-37
2023/03/11 07:39:16;;;;;;;1.90;0.63;;;15.20;1.00;;;;;;5059623;28;20037;-37
2023/03/11 07:41:44;;;;;;;2.58;0.35;;;15.20;1.00;;;;;;5064754;28;20033;-37
2023/03/11 07:44:13;;;;;;;0.63;0.20;;;15.10;1.00;;;;;;5072965;28;20094;-37
2023/03/11 07:46:40;;;;;;;3.33;0.85;;;15.10;1.00;;;;;;5073420;28;20041;-37
2023/03/11 07:49:07;;;;;;;5.85;0.30;;;15.10;1.00;;;;;;5073473;28;20428;-37
2023/03/11 07:51:36;;;;;;;2.97;0.50;;;15.10;1.00;;;;;;5073574;28;20067;-38
2023/03/11 07:54:03;;;;;;;2.00;0.55;;;15.00;1.00;;;;;;5072710;28;20049;-37
2023/03/11 07:56:32;;;;;;;1.42;0.17;;;15.00;1.00;;;;;;5073244;28;20040;-37
2023/03/11 07:59:00;;;;;;;0.57;0.47;;;15.00;1.00;;;;;;5073355;28;20048;-37
2023/03/11 08:01:34;;;;;;;4.28;0.38;;;14.90;1.00;;;;;;5071779;28;20479;-37
2023/03/11 08:04:04;;;;;;;3.63;0.90;;;14.90;1.00;;;;;;5071183;28;20438;-38
2023/03/11 08:06:33;;;;;;;5.15;1.58;;;14.80;1.00;;;;;;5061340;28;20506;-38
2023/03/11 08:09:03;;;;;;;8.18;1.00;;;14.70;1.00;;;;;;5064941;28;20210;-38
2023/03/11 08:11:30;;;;;;;4.57;1.48;;;14.60;1.00;;;;;;5064639;28;20044;-38
2023/03/11 08:13:57;;;;;;;2.55;1.20;;;14.60;1.00;;;;;;5071820;28;20048;-37
2023/03/11 08:16:25;;;;;;;7.20;0.80;;;14.60;1.00;;;;;;5072823;28;20055;-37
2023/03/11 08:18:53;;;;;;;1.85;0.60;;;14.60;1.00;;;;;;5073007;28;20033;-38
2023/03/11 08:21:22;;;;;;;4.53;0.75;;;14.60;1.00;;;;;;5072934;28;20045;-38
2023/03/11 08:23:50;;;;;;;1.30;0.60;;;14.50;1.00;;;;;;5072111;28;20094;-39
2023/03/11 08:26:20;;;;;;;3.88;0.95;;;14.50;1.00;;;;;;5072645;28;20040;-38
2023/03/11 08:28:48;;;;;;;4.75;0.73;;;14.50;1.00;;;;;;5073272;28;20036;-37
2023/03/11 08:31:24;;;;;;;3.72;0.70;;;14.50;1.00;;;;;;5072784;28;20048;-38
2023/03/11 08:33:55;;;;;;;3.10;0.55;;;14.50;1.00;;;;;;5071985;28;20086;-38
2023/03/11 08:36:22;;;;;;;2.60;1.25;;;14.40;1.00;;;;;;5072362;28;20036;-38
2023/03/11 08:38:49;;;;;;;1.95;1.17;;;14.40;1.00;;;;;;5072439;28;20091;-38
2023/03/11 08:41:15;;;;;;;2.17;0.50;;;14.40;1.00;;;;;;5072405;28;20105;-38
2023/03/11 08:43:43;;;;;;;2.90;0.47;;;14.40;1.00;;;;;;5071673;28;20044;-38
2023/03/11 08:46:35;;;;;;;3.70;1.15;;;14.40;1.00;;;;;;5072484;28;20044;-38
2023/03/11 08:49:03;;;;;;;2.15;0.60;;;14.40;1.00;;;;;;5072234;28;20094;-38
2023/03/11 08:51:31;;;;;;;3.95;0.63;;;14.30;1.00;;;;;;5072662;28;20044;-38
2023/03/11 08:53:59;;;;;;;1.58;0.88;;;14.30;1.00;;;;;;5071593;28;20074;-39
2023/03/11 08:56:26;;;;;;;2.03;0.40;;;14.30;1.00;;;;;;5072081;28;20119;-37
2023/03/11 08:58:53;;;;;;;2.78;0.50;;;14.30;1.00;;;;;;5072181;28;20102;-37
2023/03/11 09:01:21;;;;;;;2.33;0.82;;;14.30;1.00;;;;;;5072216;28;20115;-37
2023/03/11 09:03:48;;;;;;;2.58;0.60;;;14.30;1.00;;;;;;5071876;28;20507;-37
2023/03/11 09:06:16;;;;;;;1.10;0.85;;;14.30;1.00;;;;;;5071892;28;20518;-36
2023/03/11 09:08:44;;;;;;;1.25;0.40;;;14.30;1.00;;;;;;5072116;28;20079;-37
2023/03/11 09:11:14;;;;;;;0.75;0.20;;;14.30;1.00;;;;;;5072174;28;20487;-37
2023/03/11 09:13:42;;;;;;;1.90;0.65;;;14.30;1.00;;;;;;5071148;28;20048;-37
2023/03/11 09:16:13;;;;;;;1.67;0.40;;;14.30;1.00;;;;;;5071235;28;20090;-37
2023/03/11 09:18:40;;;;;;;1.27;0.80;;;14.30;1.00;;;;;;5054329;28;20040;-37
2023/03/11 09:21:07;;;;;;;1.20;0.30;;;14.30;1.00;;;;;;5072064;28;20040;-37
2023/03/11 09:23:33;;;;;;;1.10;0.43;;;14.30;1.00;;;;;;5071144;28;20036;-37
2023/03/11 09:26:00;;;;;;;1.63;0.38;;;14.30;1.00;;;;;;5071845;28;20044;-37
2023/03/11 09:28:27;;;;;;;1.05;0.30;;;14.30;1.00;;;;;;5071770;28;20048;-37
2023/03/11 09:30:54;;;;;;;0.93;0.30;;;14.30;1.00;;;;;;5072188;28;20044;-37
2023/03/11 09:33:21;;;;;;;0.90;0.43;;;14.30;1.00;;;;;;5070972;28;20045;-37
2023/03/11 09:35:53;;;;;;;1.07;0.20;;;14.30;1.00;;;;;;5071663;28;20128;-38
2023/03/11 09:38:21;;;;;;;2.55;0.45;;;14.30;1.00;;;;;;5071928;28;20315;-37
2023/03/11 09:41:01;;;;;;;0.55;0.28;;;14.30;1.00;;;;;;5071674;28;20047;-37
2023/03/11 09:43:46;;;;;;;1.38;0.60;;;14.30;1.00;;;;;;5070821;28;20047;-37
2023/03/11 09:46:38;;;;;;;2.60;0.55;;;14.30;1.00;;;;;;5053758;28;20048;-37
2023/03/11 09:49:26;;;;;;;0.77;0.30;;;14.30;1.00;;;;;;5053878;28;20044;-37
2023/03/11 09:51:58;;;;;;;1.13;0.28;;;14.20;1.00;;;;;;5071446;28;20048;-37
2023/03/11 09:54:29;;;;;;;1.03;0.30;;;14.20;1.00;;;;;;5070879;28;20102;-37
2023/03/11 09:56:56;;;;;;;2.53;0.35;;;14.20;1.00;;;;;;5071475;28;20269;-37
2023/03/11 09:59:30;;;;;;;1.10;0.60;;;14.20;1.00;;;;;;5071555;28;20488;-37
2023/03/11 10:01:58;;;;;;;2.67;0.35;;;14.30;1.00;;;;;;5071628;28;20040;-37
2023/03/11 10:04:49;;;;;;;1.05;0.40;;;14.20;1.00;;;;;;5070925;28;20044;-37
2023/03/11 10:07:21;;;;;;;1.50;0.43;;;14.30;1.00;;;;;;5071379;28;20043;-38
2023/03/11 10:09:55;;;;;;;1.35;0.13;;;14.30;1.00;;;;;;5071540;28;20032;-38
2023/03/11 10:12:43;;;;;;;1.30;0.40;;;14.30;1.00;;;;;;5053208;28;20071;-38
2023/03/11 10:15:28;;;;;;;1.00;0.28;;;14.30;1.00;;;;;;5071504;28;20044;-38
2023/03/11 10:18:15;;;;;;;1.98;0.30;;;14.30;1.00;;;;;;5071342;28;20058;-37
2023/03/11 10:20:52;;;;;;;0.68;0.22;;;14.30;1.00;;;;;;5071343;28;20068;-38
2023/03/11 10:23:55;;;;;;;0.88;0.30;;;14.30;1.00;;;;;;5070579;28;20036;-38
2023/03/11 10:26:21;;;;;;;1.27;0.30;;;14.30;1.00;;;;;;5071304;28;20044;-38
2023/03/11 10:28:58;;;;;;;1.38;0.45;;;14.30;1.00;;;;;;5074135;28;20067;-38
2023/03/11 10:31:56;;;;;;;0.75;0.20;;;14.30;1.00;;;;;;5074859;28;20090;-38
2023/03/11 10:34:38;;;;;;;3.97;0.43;;;14.30;1.00;;;;;;5074226;28;20106;-38
2023/03/11 10:37:17;;;;;;;0.20;0.10;;;14.30;1.00;;;;;;5074758;28;20032;-38
2023/03/11 10:39:47;;;;;;;3.30;0.38;;;14.30;1.00;;;;;;5074658;28;20514;-38
2023/03/11 10:42:24;;;;;;;3.50;0.30;;;14.30;1.00;;;;;;5074470;28;20503;-38
2023/03/11 10:44:51;;;;;;;1.17;0.10;;;14.30;1.00;;;;;;5074662;28;20496;-37
2023/03/11 10:47:24;;;;;;;1.48;0.10;;;14.30;1.00;;;;;;5074665;28;20040;-38
2023/03/11 10:49:51;;;;;;;0.70;0.40;;;14.30;1.00;;;;;;5074766;28;20041;-38
2023/03/11 10:52:18;;;;;;;0.50;0.22;;;14.30;1.00;;;;;;5074084;28;20488;-37
2023/03/11 10:54:48;;;;;;;2.42;0.22;;;14.30;1.00;;;;;;5074092;28;20037;-38
2023/03/11 10:57:35;;;;;;;1.30;0.28;;;14.30;1.00;;;;;;5074463;28;20048;-38
2023/03/11 11:00:16;;;;;;;0.80;0.32;;;14.30;1.00;;;;;;5074549;28;20041;-37
2023/03/11 11:02:52;;;;;;;0.98;0.30;;;14.30;1.00;;;;;;5073513;28;20488;-37
2023/03/11 11:05:21;;;;;;;1.20;0.10;;;14.30;1.00;;;;;;5074885;28;20044;-37
2023/03/11 11:07:51;;;;;;;0.50;0.10;;;14.30;1.00;;;;;;5074376;28;20048;-37
2023/03/11 11:10:28;;;;;;;1.42;0.30;;;14.30;1.00;;;;;;5074342;28;20040;-37
2023/03/11 11:13:01;;;;;;;0.88;0.30;;;14.30;1.00;;;;;;5073347;28;20082;-37
2023/03/11 11:15:39;;;;;;;0.93;0.17;;;14.30;1.00;;;;;;5074240;28;20101;-38
2023/03/11 11:18:19;;;;;;;0.73;0.20;;;14.30;1.00;;;;;;5074063;28;20052;-37
2023/03/11 11:21:00;;;;;;;0.82;0.20;;;14.30;1.00;;;;;;5074174;28;20040;-37
2023/03/11 11:23:30;;;;;;;2.40;0.20;;;14.30;1.00;;;;;;5073261;28;20044;-37
2023/03/11 11:26:00;;;;;;;0.95;0.28;;;14.40;1.00;;;;;;5073859;28;20115;-37
2023/03/11 11:28:27;;;;;;;1.10;0.60;;;14.30;1.00;;;;;;5074039;28;20051;-37
2023/03/11 11:31:17;;;;;;;1.73;0.38;;;14.40;1.00;;;;;;5073872;28;20048;-38
2023/03/11 11:33:55;;;;;;;2.38;0.20;;;14.30;1.00;;;;;;5073140;28;20045;-37
2023/03/11 11:36:27;;;;;;;0.75;0.30;;;14.40;1.00;;;;;;5073564;28;20098;-37
2023/03/11 11:38:54;;;;;;;2.13;0.98;;;14.40;1.00;;;;;;5073299;28;20033;-37
2023/03/11 11:41:24;;;;;;;1.08;0.25;;;14.40;1.00;;;;;;5073611;28;20049;-37
2023/03/11 11:44:01;;;;;;;2.05;0.25;;;14.40;1.00;;;;;;5073056;28;20055;-37
2023/03/11 11:46:35;;;;;;;1.25;0.20;;;14.40;1.00;;;;;;5073506;28;20040;-38
2023/03/11 11:49:28;;;;;;;0.75;0.73;;;14.30;1.00;;;;;;5073539;28;20051;-37
2023/03/11 11:52:05;;;;;;;1.33;0.28;;;14.40;1.00;;;;;;5073763;28;20044;-37
2023/03/11 11:54:59;;;;;;;1.15;0.20;;;14.30;1.00;;;;;;5072754;28;20053;-37
2023/03/11 11:57:27;;;;;;;1.30;0.15;;;14.30;1.00;;;;;;5073439;28;20460;-37
2023/03/11 11:59:54;;;;;;;1.23;0.45;;;14.30;1.00;;;;;;5073281;28;20047;-38
2023/03/11 12:02:29;;;;;;;1.25;0.10;;;14.30;1.00;;;;;;5072859;28;20041;-38
2023/03/11 12:05:20;;;;;;;1.10;0.20;;;14.30;1.00;;;;;;5072941;28;20032;-37
2023/03/11 12:07:58;;;;;;;0.40;0.20;;;14.30;1.00;;;;;;5073366;28;20503;-37
2023/03/11 12:10:38;;;;;;;2.00;0.15;;;14.30;1.00;;;;;;5073083;28;20043;-38
2023/03/11 12:13:41;;;;;;;0.73;0.20;;;14.30;1.00;;;;;;5072387;28;20044;-38
2023/03/11 12:16:24;;;;;;;0.28;0.17;;;14.30;1.00;;;;;;5072893;28;20040;-37
2023/03/11 12:19:13;;;;;;;0.82;0.30;;;14.30;1.00;;;;;;5055048;28;20454;-38
2023/03/11 12:21:55;;;;;;;0.50;0.20;;;14.30;1.00;;;;;;5072988;28;20565;-38
2023/03/11 12:24:52;;;;;;;0.63;0.10;;;14.30;1.00;;;;;;5072094;28;20123;-38
2023/03/11 12:27:27;;;;;;;0.70;0.30;;;14.30;1.00;;;;;;5072838;28;20080;-38
2023/03/11 12:30:02;;;;;;;2.92;0.30;;;14.20;1.00;;;;;;5072813;28;20041;-38
2023/03/11 12:32:37;;;;;;;0.00;0.00;;;14.20;1.00;;;;;;5072242;28;20105;-38
2023/03/11 12:35:25;;;;;;;0.65;0.17;;;14.20;1.00;;;;;;5072611;28;20113;-38
2023/03/11 12:38:00;;;;;;;0.57;0.10;;;14.20;1.00;;;;;;5088351;22;20045;-39
2023/03/11 12:40:44;;;;;;;1.73;0.20;;;14.20;1.00;;;;;;5083215;28;20040;-40
2023/03/11 12:43:32;;;;;;;0.40;0.13;;;14.20;1.00;;;;;;5091437;28;20235;-39
2023/03/11 12:46:00;;;;;;;1.08;0.20;;;14.20;1.00;;;;;;5091903;28;20055;-37
2023/03/11 12:48:44;;;;;;;0.70;0.22;;;14.20;1.00;;;;;;5073054;28;20088;-38
2023/03/11 12:51:26;;;;;;;0.95;0.20;;;14.20;1.00;;;;;;5070608;28;20040;-37
2023/03/11 12:53:54;;;;;;;1.15;0.22;;;14.20;1.00;;;;;;5070746;28;20036;-38
2023/03/11 12:56:36;;;;;;;0.82;0.30;;;14.20;1.00;;;;;;5071305;28;20105;-37
2023/03/11 12:59:37;;;;;;;0.45;0.05;;;14.20;1.00;;;;;;5071473;28;20045;-38
2023/03/11 13:02:15;;;;;;;1.77;0.20;;;14.20;1.00;;;;;;5071344;28;20072;-38
2023/03/11 13:05:28;;;;;;;2.70;0.10;;;14.20;1.00;;;;;;5071029;28;20041;-38
2023/03/11 13:08:15;;;;;;;0.93;0.32;;;14.20;1.00;;;;;;5071266;28;20051;-38
2023/03/11 13:10:44;;;;;;;0.35;0.10;;;14.20;1.00;;;;;;5071181;28;20048;-37
2023/03/11 13:13:32;;;;;;;0.50;0.20;;;14.20;1.00;;;;;;5070790;28;20102;-39
2023/03/11 13:16:14;;;;;;;1.13;0.28;;;14.20;1.00;;;;;;5071304;28;20127;-39
2023/03/11 13:18:43;;;;;;;0.57;0.20;;;14.20;1.00;;;;;;5071354;28;20037;-39